Time;durP1;ratioP1;P1;durP2;ratioP2;P2;SDS_P1;SDS_P2;PMS_P1;PMS_P2;Temp;Humidity;BMP_temperature;BMP_pressure;BME280_temperature;BME280_humidity;BME280_pressure;Samples;Min_cycle;Max_cycle;Signal;HPM_P1;HPM_P2
2021/12/12 00:02:32;;;;;;;34.70;23.83;;;1.40;34.40;;;;;;5049616;28;20447;-59
2021/12/12 00:05:08;;;;;;;31.43;22.50;;;1.40;34.10;;;;;;5054127;28;20822;-59
2021/12/12 00:07:34;;;;;;;35.00;23.47;;;1.40;39.30;;;;;;5049881;28;20443;-58
2021/12/12 00:10:04;;;;;;;42.70;23.23;;;1.30;35.00;;;;;;5063811;28;20428;-60
2021/12/12 00:12:34;;;;;;;36.30;24.23;;;1.40;35.00;;;;;;5071891;28;20445;-58
2021/12/12 00:15:01;;;;;;;33.47;22.67;;;1.40;33.50;;;;;;5063203;28;20446;-60
2021/12/12 00:17:27;;;;;;;39.37;24.83;;;1.40;33.10;;;;;;5049242;28;20482;-60
2021/12/12 00:19:53;;;;;;;37.53;23.27;;;1.30;31.90;;;;;;5062589;28;20506;-59
2021/12/12 00:22:22;;;;;;;37.07;23.20;;;1.40;31.60;;;;;;5062499;28;20844;-60
2021/12/12 00:24:49;;;;;;;36.17;24.33;;;;;;;;;;5050183;28;20794;-58
2021/12/12 00:27:15;;;;;;;33.60;23.50;;;1.40;34.00;;;;;;5059787;28;20449;-60
2021/12/12 00:29:41;;;;;;;36.43;23.57;;;1.30;34.00;;;;;;5055403;28;21003;-59
2021/12/12 00:32:10;;;;;;;32.57;22.00;;;1.30;33.00;;;;;;5050441;28;20445;-60
2021/12/12 00:34:41;;;;;;;38.80;25.57;;;1.30;32.40;;;;;;5048935;28;20931;-58
2021/12/12 00:37:08;;;;;;;32.10;22.27;;;1.20;34.40;;;;;;5053528;28;20430;-59
2021/12/12 00:39:38;;;;;;;36.33;23.20;;;1.20;35.40;;;;;;5051454;28;20504;-60
2021/12/12 00:42:09;;;;;;;37.40;23.03;;;1.10;37.20;;;;;;5053700;28;20444;-60
2021/12/12 00:44:38;;;;;;;36.80;23.27;;;1.10;39.10;;;;;;5050984;28;20462;-60
2021/12/12 00:47:06;;;;;;;34.93;21.93;;;1.20;38.40;;;;;;5052383;28;20456;-59
2021/12/12 00:49:35;;;;;;;32.90;23.57;;;1.20;35.40;;;;;;5051991;28;20477;-61
2021/12/12 00:52:02;;;;;;;35.43;22.37;;;1.20;33.70;;;;;;5048836;28;20455;-59
2021/12/12 00:54:31;;;;;;;35.30;22.60;;;1.20;29.30;;;;;;5052963;28;20531;-61
2021/12/12 00:56:58;;;;;;;28.00;19.90;;;1.20;28.90;;;;;;5049860;28;20448;-59
2021/12/12 00:59:24;;;;;;;37.70;22.80;;;;;;;;;;5052396;28;20452;-60
2021/12/12 01:01:51;;;;;;;38.07;22.47;;;1.20;24.60;;;;;;5051565;28;20464;-59
2021/12/12 01:04:33;;;;;;;31.60;22.13;;;1.10;24.70;;;;;;5052897;28;20443;-59
2021/12/12 01:07:04;;;;;;;33.77;21.33;;;1.20;27.90;;;;;;5050266;28;20476;-58
2021/12/12 01:09:36;;;;;;;33.50;22.47;;;1.20;30.20;;;;;;5053021;28;20855;-59
2021/12/12 01:12:07;;;;;;;34.80;22.10;;;1.20;29.00;;;;;;5051617;28;20462;-59
2021/12/12 01:14:37;;;;;;;33.00;21.77;;;1.20;28.80;;;;;;5049270;28;20463;-59
2021/12/12 01:17:12;;;;;;;35.73;23.80;;;1.20;26.50;;;;;;5051328;28;20446;-58
2021/12/12 01:19:50;;;;;;;35.73;21.60;;;1.20;24.90;;;;;;5051336;28;20481;-59
2021/12/12 01:22:24;;;;;;;30.33;20.73;;;1.20;26.50;;;;;;5050646;28;20816;-59
2021/12/12 01:24:52;;;;;;;29.53;20.43;;;1.20;27.30;;;;;;5051503;28;20508;-59
2021/12/12 01:27:19;;;;;;;36.10;21.03;;;1.10;28.90;;;;;;5050755;28;20557;-59
2021/12/12 01:29:47;;;;;;;35.10;21.93;;;1.10;32.00;;;;;;5052120;28;20545;-59
2021/12/12 01:32:25;;;;;;;36.63;22.83;;;1.10;31.00;;;;;;5047286;28;20459;-60
2021/12/12 01:34:52;;;;;;;32.87;23.07;;;1.10;29.40;;;;;;5052199;28;20447;-60
2021/12/12 01:39:52;;;;;;;32.17;21.87;;;1.00;29.80;;;;;;5051466;28;21035;-59
2021/12/12 01:42:25;;;;;;;27.43;18.07;;;1.10;29.80;;;;;;5050035;28;20459;-60
2021/12/12 01:45:11;;;;;;;35.50;20.83;;;1.10;28.90;;;;;;5055772;28;20457;-60
2021/12/12 01:47:53;;;;;;;32.80;20.07;;;1.10;28.40;;;;;;5059618;28;20443;-59
2021/12/12 01:50:25;;;;;;;31.67;20.67;;;1.00;28.50;;;;;;5051778;28;20439;-59
2021/12/12 01:52:52;;;;;;;33.83;19.90;;;1.10;26.60;;;;;;5049318;28;20454;-59
2021/12/12 01:55:25;;;;;;;31.13;20.30;;;1.10;24.70;;;;;;5052894;28;20849;-59
2021/12/12 01:57:54;;;;;;;29.83;20.17;;;1.10;24.70;;;;;;5053589;28;20539;-58
2021/12/12 02:00:25;;;;;;;29.13;17.50;;;1.00;24.60;;;;;;5048152;28;20675;-59
2021/12/12 02:02:51;;;;;;;28.80;19.47;;;1.00;24.60;;;;;;5046332;28;20447;-58
2021/12/12 02:05:19;;;;;;;24.90;17.07;;;1.00;26.30;;;;;;5051804;28;20480;-60
2021/12/12 02:07:52;;;;;;;24.63;17.40;;;1.00;23.40;;;;;;5051329;28;20798;-60
2021/12/12 02:10:26;;;;;;;26.23;19.33;;;1.00;24.60;;;;;;5051224;28;20449;-60
2021/12/12 02:12:52;;;;;;;28.50;18.70;;;0.90;25.50;;;;;;5049081;28;20817;-60
2021/12/12 02:15:19;;;;;;;31.07;19.27;;;0.90;24.60;;;;;;5048522;28;20500;-60
2021/12/12 02:17:48;;;;;;;24.90;17.07;;;0.90;23.40;;;;;;5050577;28;20447;-59
2021/12/12 02:20:38;;;;;;;29.67;18.37;;;0.90;24.60;;;;;;5050404;28;20934;-59
2021/12/12 02:23:19;;;;;;;23.20;16.57;;;0.90;23.20;;;;;;5050320;28;20443;-60
2021/12/12 02:36:54;;;;;;;28.73;18.03;;;0.90;21.30;;;;;;5051249;28;20852;-60
2021/12/12 02:39:19;;;;;;;24.60;16.40;;;0.90;22.00;;;;;;5052125;28;20458;-59
2021/12/12 02:41:56;;;;;;;28.63;16.80;;;0.70;21.80;;;;;;5050629;28;20444;-59
2021/12/12 02:44:28;;;;;;;23.23;15.80;;;0.80;23.00;;;;;;5044715;28;20188;-60
2021/12/12 02:46:58;;;;;;;27.77;16.40;;;0.70;25.40;;;;;;5049635;28;20454;-60
2021/12/12 02:52:02;;;;;;;23.70;15.50;;;;;;;;;;5049718;28;20460;-58
2021/12/12 02:54:28;;;;;;;27.20;16.57;;;0.80;21.90;;;;;;5050098;28;20451;-59
2021/12/12 02:56:53;;;;;;;26.83;14.83;;;0.80;21.80;;;;;;5060387;28;20455;-60
2021/12/12 02:59:22;;;;;;;24.10;16.37;;;0.80;21.60;;;;;;5050395;28;20269;-58
2021/12/12 03:01:59;;;;;;;27.53;16.77;;;0.70;21.00;;;;;;5049126;28;20586;-59
2021/12/12 03:04:26;;;;;;;28.17;16.83;;;0.70;20.10;;;;;;5049153;28;20443;-59
2021/12/12 03:06:52;;;;;;;21.50;16.23;;;0.70;21.10;;;;;;5050438;28;20933;-58
2021/12/12 03:09:25;;;;;;;21.30;14.60;;;0.70;21.10;;;;;;5045044;28;20492;-58
2021/12/12 03:11:57;;;;;;;22.33;16.47;;;0.70;19.00;;;;;;5049336;28;20437;-59
2021/12/12 03:14:23;;;;;;;22.63;15.90;;;0.70;17.50;;;;;;5047378;28;20502;-59
2021/12/12 03:16:50;;;;;;;26.43;16.50;;;;;;;;;;5049630;28;20443;-59
2021/12/12 03:19:20;;;;;;;24.60;15.53;;;0.60;18.40;;;;;;5049556;28;20456;-58
2021/12/12 03:21:46;;;;;;;21.80;14.20;;;0.50;21.40;;;;;;5049962;28;20534;-59
2021/12/12 03:24:19;;;;;;;22.53;16.33;;;0.50;18.40;;;;;;5050345;28;20454;-60
2021/12/12 03:26:47;;;;;;;23.83;13.93;;;0.50;18.50;;;;;;5046492;28;20455;-59
2021/12/12 03:29:13;;;;;;;20.87;15.40;;;0.60;15.80;;;;;;5050376;28;20625;-58
2021/12/12 03:31:43;;;;;;;21.60;14.40;;;0.60;15.70;;;;;;5049627;28;20433;-59
2021/12/12 03:34:13;;;;;;;22.30;14.93;;;0.60;13.20;;;;;;5048971;28;20447;-58
2021/12/12 03:36:40;;;;;;;24.17;15.83;;;0.50;15.60;;;;;;5050345;28;20894;-59
2021/12/12 03:39:11;;;;;;;21.03;14.23;;;0.60;13.30;;;;;;5051549;28;20549;-58
2021/12/12 03:41:37;;;;;;;23.53;15.40;;;0.60;10.00;;;;;;5050446;28;20440;-59
2021/12/12 03:44:06;;;;;;;26.23;17.37;;;0.60;13.20;;;;;;5040144;28;20497;-59
2021/12/12 03:46:33;;;;;;;25.70;16.80;;;0.50;11.70;;;;;;5052360;28;20775;-59
2021/12/12 03:48:59;;;;;;;25.00;13.60;;;0.60;14.70;;;;;;5049098;28;20499;-59
2021/12/12 03:51:28;;;;;;;22.90;16.50;;;0.60;10.40;;;;;;5056430;28;20447;-59
2021/12/12 03:53:54;;;;;;;25.20;14.50;;;0.50;11.20;;;;;;5047927;28;20716;-61
2021/12/12 03:56:20;;;;;;;19.37;14.33;;;0.50;13.90;;;;;;5051286;28;20444;-59
2021/12/12 03:58:47;;;;;;;25.67;16.17;;;0.50;13.20;;;;;;5048533;28;20443;-59
2021/12/12 04:01:32;;;;;;;27.87;16.00;;;0.50;12.40;;;;;;5044711;28;20493;-60
2021/12/12 04:04:07;;;;;;;25.07;14.57;;;0.50;10.70;;;;;;5039513;28;20447;-59
2021/12/12 04:06:33;;;;;;;21.97;14.60;;;0.50;9.60;;;;;;5043906;28;20651;-60
2021/12/12 04:08:59;;;;;;;23.03;15.37;;;0.50;9.50;;;;;;5049001;28;20561;-59
2021/12/12 04:11:30;;;;;;;22.60;14.47;;;0.40;9.80;;;;;;5050185;28;20180;-58
2021/12/12 04:13:57;;;;;;;20.23;13.93;;;0.50;10.60;;;;;;5049562;28;20449;-58
2021/12/12 04:16:27;;;;;;;24.23;14.90;;;0.40;11.10;;;;;;5049271;28;20444;-60
2021/12/12 04:18:53;;;;;;;22.53;14.63;;;0.50;11.10;;;;;;5049337;28;20447;-59
2021/12/12 04:21:21;;;;;;;25.30;14.40;;;0.40;9.80;;;;;;5050927;28;20452;-59
2021/12/12 04:23:47;;;;;;;23.40;13.80;;;0.40;10.10;;;;;;5050304;28;20487;-59
2021/12/12 04:26:22;;;;;;;23.87;14.37;;;0.40;10.90;;;;;;5048934;28;21052;-59
2021/12/12 04:29:08;;;;;;;18.17;13.13;;;0.50;8.70;;;;;;5051315;28;20469;-59
2021/12/12 04:31:37;;;;;;;19.87;13.03;;;0.50;5.20;;;;;;5048891;28;20444;-58
2021/12/12 04:34:04;;;;;;;19.27;13.57;;;0.60;1.00;;;;;;5049811;28;20439;-57
2021/12/12 04:36:41;;;;;;;21.67;13.13;;;0.60;1.00;;;;;;5049422;28;20446;-59
2021/12/12 04:39:22;;;;;;;18.40;12.40;;;0.50;1.00;;;;;;5047641;28;20529;-59
2021/12/12 04:41:50;;;;;;;21.53;14.80;;;0.50;1.00;;;;;;5049685;28;20492;-58
2021/12/12 04:44:25;;;;;;;19.30;13.90;;;0.50;1.00;;;;;;5048172;28;20451;-59
2021/12/12 04:49:57;;;;;;;22.03;13.47;;;0.60;1.00;;;;;;5048892;28;20963;-59
2021/12/12 04:52:29;;;;;;;17.73;12.00;;;0.60;1.00;;;;;;5047684;28;20447;-59
2021/12/12 04:55:10;;;;;;;19.43;12.90;;;0.60;1.00;;;;;;5045591;28;20462;-59
2021/12/12 04:57:42;;;;;;;18.10;12.23;;;0.70;1.00;;;;;;5052073;28;20525;-59
2021/12/12 05:00:29;;;;;;;20.03;12.17;;;0.80;1.00;;;;;;5053172;28;20431;-59
2021/12/12 05:03:09;;;;;;;19.93;12.40;;;0.90;1.00;;;;;;5048460;28;20441;-60
2021/12/12 05:05:44;;;;;;;16.73;11.77;;;1.00;1.00;;;;;;5051868;28;20439;-59
2021/12/12 05:08:14;;;;;;;17.27;13.00;;;1.00;1.00;;;;;;5054104;28;20869;-60
2021/12/12 05:10:50;;;;;;;17.40;12.40;;;1.00;1.00;;;;;;5053038;28;20560;-58
2021/12/12 05:13:19;;;;;;;14.60;11.50;;;1.10;1.00;;;;;;5051634;28;20454;-59
2021/12/12 05:15:49;;;;;;;18.00;13.00;;;1.10;1.00;;;;;;5051458;28;20888;-59
2021/12/12 05:18:19;;;;;;;19.60;12.43;;;1.00;1.00;;;;;;5051738;28;20451;-59
2021/12/12 05:20:49;;;;;;;16.30;11.10;;;1.20;1.00;;;;;;5051720;28;20451;-58
2021/12/12 05:23:18;;;;;;;20.60;12.43;;;1.20;1.00;;;;;;5051692;28;20442;-58
2021/12/12 05:25:56;;;;;;;17.37;12.23;;;1.20;1.00;;;;;;5049240;28;20456;-59
2021/12/12 05:28:30;;;;;;;17.37;12.97;;;1.20;1.00;;;;;;5050744;28;20830;-58
2021/12/12 05:30:57;;;;;;;20.83;12.23;;;1.20;1.00;;;;;;5051538;28;20755;-60
2021/12/12 05:33:24;;;;;;;18.87;12.40;;;1.20;1.00;;;;;;5052282;28;20605;-59
2021/12/12 05:35:50;;;;;;;20.37;12.53;;;1.30;1.00;;;;;;5052430;28;20434;-59
2021/12/12 05:38:16;;;;;;;17.23;13.67;;;1.30;1.00;;;;;;5048013;28;20862;-59
2021/12/12 05:40:45;;;;;;;18.27;13.37;;;1.20;1.00;;;;;;5050662;28;20477;-58
2021/12/12 05:43:12;;;;;;;25.10;12.73;;;1.20;1.00;;;;;;5043741;28;20192;-59
2021/12/12 05:45:39;;;;;;;18.70;12.47;;;1.30;1.00;;;;;;5051252;28;20478;-59
2021/12/12 05:48:07;;;;;;;18.43;13.17;;;1.20;1.00;;;;;;5052348;28;20462;-59
2021/12/12 05:50:33;;;;;;;21.27;13.40;;;1.30;1.00;;;;;;5050184;28;20501;-58
2021/12/12 05:52:59;;;;;;;19.00;12.07;;;;;;;;;;5050912;28;20467;-59
2021/12/12 05:55:29;;;;;;;15.20;11.53;;;1.30;1.00;;;;;;5052030;28;20928;-59
2021/12/12 05:57:56;;;;;;;23.33;14.20;;;1.30;1.00;;;;;;5053302;28;20988;-59
2021/12/12 06:00:29;;;;;;;20.60;12.30;;;1.20;1.00;;;;;;5050270;28;20445;-60
2021/12/12 06:02:56;;;;;;;22.63;12.43;;;1.10;1.00;;;;;;5052998;28;20501;-58
2021/12/12 06:05:22;;;;;;;22.17;13.93;;;1.10;1.00;;;;;;5048292;28;21034;-59
2021/12/12 06:07:49;;;;;;;21.43;11.77;;;1.00;1.00;;;;;;5048698;28;20477;-58
2021/12/12 06:10:17;;;;;;;19.93;12.27;;;;;;;;;;5050073;28;20989;-59
2021/12/12 06:12:44;;;;;;;18.20;12.13;;;0.80;1.00;;;;;;5054393;28;20805;-59
2021/12/12 06:15:16;;;;;;;18.67;12.87;;;0.70;1.00;;;;;;5049223;28;20445;-58
2021/12/12 06:17:42;;;;;;;22.57;12.53;;;0.70;1.00;;;;;;5049115;28;20444;-59
2021/12/12 06:20:10;;;;;;;17.07;11.90;;;0.60;1.00;;;;;;5052120;28;20511;-58
2021/12/12 06:22:37;;;;;;;17.40;12.77;;;0.60;1.00;;;;;;5066345;28;20438;-59
2021/12/12 06:25:05;;;;;;;18.77;11.83;;;0.60;1.00;;;;;;5056487;28;20450;-59
2021/12/12 06:27:31;;;;;;;16.10;11.90;;;0.60;1.00;;;;;;5055011;28;20447;-59
2021/12/12 06:29:57;;;;;;;18.70;12.63;;;0.60;1.00;;;;;;5052664;28;20471;-58
2021/12/12 06:32:23;;;;;;;19.43;12.40;;;0.60;1.00;;;;;;5051168;28;20486;-59
2021/12/12 06:34:50;;;;;;;19.87;11.30;;;0.60;1.00;;;;;;5051802;28;20181;-58
2021/12/12 06:37:17;;;;;;;16.80;12.20;;;0.50;1.00;;;;;;5044705;28;20546;-59
2021/12/12 06:39:44;;;;;;;21.23;12.20;;;0.40;1.00;;;;;;5051079;28;20455;-59
2021/12/12 06:42:11;;;;;;;13.97;10.60;;;0.30;1.00;;;;;;5048837;28;20579;-59
2021/12/12 06:44:39;;;;;;;21.87;13.50;;;0.30;1.00;;;;;;5058651;28;20845;-59
2021/12/12 06:47:06;;;;;;;16.00;11.57;;;0.30;1.00;;;;;;5053974;28;20447;-59
2021/12/12 06:49:32;;;;;;;17.00;11.53;;;;;;;;;;5050570;28;20962;-59
2021/12/12 06:52:00;;;;;;;19.97;11.63;;;0.40;1.00;;;;;;5060511;28;20957;-60
2021/12/12 06:54:27;;;;;;;19.23;11.00;;;0.40;1.00;;;;;;5049702;28;20442;-58
2021/12/12 06:56:56;;;;;;;20.00;12.30;;;0.50;1.00;;;;;;5049839;28;20822;-59
2021/12/12 06:59:26;;;;;;;17.90;11.53;;;0.40;1.00;;;;;;5047781;28;20458;-59
2021/12/12 07:01:53;;;;;;;16.60;12.10;;;;;;;;;;5051017;28;20453;-59
2021/12/12 07:04:19;;;;;;;17.83;11.37;;;0.50;1.00;;;;;;5050107;28;20467;-59
2021/12/12 07:06:52;;;;;;;16.77;12.20;;;0.50;1.00;;;;;;5056222;28;21002;-60
2021/12/12 07:09:18;;;;;;;18.93;12.40;;;0.40;1.00;;;;;;5050907;28;20507;-59
2021/12/12 07:11:44;;;;;;;22.70;13.10;;;0.40;1.00;;;;;;5049909;28;20485;-59
2021/12/12 07:14:14;;;;;;;17.17;11.40;;;0.40;1.00;;;;;;5044477;28;20177;-59
2021/12/12 07:16:41;;;;;;;21.40;12.83;;;0.50;1.00;;;;;;5048074;28;20506;-60
2021/12/12 07:19:07;;;;;;;19.37;11.97;;;0.50;1.00;;;;;;5050128;28;20517;-59
2021/12/12 07:21:34;;;;;;;24.90;13.03;;;0.60;1.00;;;;;;5055226;28;20446;-59
2021/12/12 07:24:02;;;;;;;15.80;11.50;;;0.60;1.00;;;;;;5047716;28;20444;-59
2021/12/12 07:26:29;;;;;;;16.00;11.37;;;0.60;1.00;;;;;;5049644;28;20770;-58
2021/12/12 07:28:57;;;;;;;19.53;12.53;;;0.60;1.00;;;;;;5048769;28;20824;-59
2021/12/12 07:31:26;;;;;;;19.13;11.47;;;0.60;1.00;;;;;;5048036;28;20456;-58
2021/12/12 07:33:57;;;;;;;19.67;11.70;;;0.60;1.00;;;;;;5050338;28;20787;-58
2021/12/12 07:36:26;;;;;;;22.40;12.40;;;0.60;1.00;;;;;;5050385;28;20489;-60
2021/12/12 07:38:59;;;;;;;18.10;10.70;;;0.60;1.00;;;;;;5049536;28;21045;-59
2021/12/12 07:41:28;;;;;;;17.07;11.90;;;0.70;1.00;;;;;;5051114;28;20481;-58
2021/12/12 07:43:55;;;;;;;15.77;9.97;;;0.70;1.00;;;;;;5045830;28;20904;-58
2021/12/12 07:46:21;;;;;;;18.13;12.60;;;0.60;1.00;;;;;;5049349;28;20486;-59
2021/12/12 07:48:48;;;;;;;17.93;11.47;;;0.60;1.00;;;;;;5050400;28;20467;-59
2021/12/12 07:51:15;;;;;;;19.63;11.20;;;0.60;1.00;;;;;;5048950;28;20980;-60
2021/12/12 07:53:41;;;;;;;19.93;11.60;;;0.70;1.00;;;;;;5049708;28;20945;-60
2021/12/12 07:56:07;;;;;;;19.20;12.00;;;0.70;1.00;;;;;;5049762;28;20632;-60
2021/12/12 07:58:34;;;;;;;17.27;12.97;;;0.80;1.00;;;;;;5049903;28;20664;-61
2021/12/12 08:01:00;;;;;;;18.47;12.20;;;0.90;1.00;;;;;;5049863;28;20435;-58
2021/12/12 08:03:32;;;;;;;19.40;12.37;;;0.80;1.00;;;;;;5047941;28;20449;-60
2021/12/12 08:06:00;;;;;;;19.87;12.40;;;0.90;1.00;;;;;;5048880;28;20443;-59
2021/12/12 08:08:29;;;;;;;17.97;11.67;;;0.90;1.00;;;;;;5049858;28;20479;-59
2021/12/12 08:10:57;;;;;;;19.07;11.30;;;1.00;1.00;;;;;;5049987;28;20455;-59
2021/12/12 08:13:23;;;;;;;17.33;13.90;;;1.10;1.00;;;;;;5052885;28;20440;-59
2021/12/12 08:15:49;;;;;;;18.17;11.70;;;1.20;1.00;;;;;;5052142;28;20447;-58
2021/12/12 08:18:18;;;;;;;19.00;13.23;;;1.30;1.00;;;;;;5055641;28;20443;-58
2021/12/12 08:20:45;;;;;;;18.17;11.03;;;1.40;1.00;;;;;;5049994;28;20449;-59
2021/12/12 08:23:12;;;;;;;15.60;11.10;;;1.50;1.00;;;;;;5050815;28;20811;-60
2021/12/12 08:25:38;;;;;;;14.03;9.80;;;1.40;1.00;;;;;;5056700;28;20440;-60
2021/12/12 08:28:05;;;;;;;14.30;11.10;;;1.40;1.00;;;;;;5049517;28;20988;-60
2021/12/12 08:30:35;;;;;;;16.27;10.13;;;1.40;1.00;;;;;;5049629;28;20442;-59
2021/12/12 08:33:02;;;;;;;14.23;10.77;;;1.40;1.00;;;;;;5053957;28;20994;-60
2021/12/12 08:35:28;;;;;;;16.87;10.40;;;1.60;1.00;;;;;;5053073;28;20439;-61
2021/12/12 08:37:57;;;;;;;19.73;12.97;;;1.60;1.00;;;;;;5064216;28;20494;-60
2021/12/12 08:40:24;;;;;;;11.90;9.30;;;;;;;;;;5073258;28;20430;-60
2021/12/12 08:42:52;;;;;;;16.63;11.37;;;1.70;1.00;;;;;;5061156;28;20479;-59
2021/12/12 08:45:21;;;;;;;14.70;11.00;;;1.80;1.00;;;;;;5053332;28;20548;-59
2021/12/12 08:47:48;;;;;;;14.37;10.73;;;1.80;1.00;;;;;;5053036;28;20448;-59
2021/12/12 08:50:18;;;;;;;14.63;10.20;;;1.80;1.00;;;;;;5053321;28;20435;-60
2021/12/12 08:52:46;;;;;;;14.17;9.90;;;1.90;1.00;;;;;;5056390;28;20444;-59
2021/12/12 08:55:18;;;;;;;19.70;11.67;;;1.90;1.00;;;;;;5054337;28;20499;-59
2021/12/12 08:58:03;;;;;;;14.33;10.50;;;1.90;1.00;;;;;;5052324;28;20439;-60
2021/12/12 09:00:34;;;;;;;15.07;10.63;;;2.00;1.00;;;;;;5053321;28;20443;-59
2021/12/12 09:03:00;;;;;;;13.90;10.43;;;2.00;1.00;;;;;;5055398;28;20435;-58
2021/12/12 09:05:32;;;;;;;15.40;11.40;;;2.10;1.00;;;;;;5054894;28;21005;-59
2021/12/12 09:08:05;;;;;;;17.03;10.83;;;2.20;1.00;;;;;;5052601;28;20524;-59
2021/12/12 09:10:40;;;;;;;15.73;10.70;;;2.20;1.00;;;;;;5053541;28;20456;-60
2021/12/12 09:13:27;;;;;;;20.67;11.67;;;2.20;1.00;;;;;;5052524;28;20467;-59
2021/12/12 09:16:29;;;;;;;18.40;11.20;;;2.20;1.00;;;;;;5051504;28;20951;-58
2021/12/12 09:19:02;;;;;;;15.93;10.57;;;2.40;1.00;;;;;;5047804;28;20813;-58
2021/12/12 09:21:36;;;;;;;12.37;9.73;;;2.40;1.00;;;;;;5054886;28;20767;-59
2021/12/12 09:24:10;;;;;;;18.87;11.37;;;2.40;1.00;;;;;;5051597;28;20452;-59
2021/12/12 09:26:45;;;;;;;18.73;10.80;;;2.60;1.00;;;;;;5052306;28;20449;-59
2021/12/12 09:29:23;;;;;;;15.40;12.00;;;2.50;1.00;;;;;;5049228;28;20482;-60
2021/12/12 09:32:33;;;;;;;16.43;11.57;;;2.80;1.00;;;;;;5051086;28;20514;-58
2021/12/12 09:35:12;;;;;;;18.10;11.20;;;3.00;1.00;;;;;;5023578;28;21046;-59
2021/12/12 09:37:45;;;;;;;16.73;12.03;;;3.10;1.00;;;;;;5024622;28;20549;-59
2021/12/12 09:40:31;;;;;;;15.77;10.90;;;3.40;1.00;;;;;;5041418;28;20524;-59
2021/12/12 09:43:32;;;;;;;13.90;10.50;;;3.30;1.00;;;;;;5050742;28;21033;-61
2021/12/12 09:46:03;;;;;;;17.90;11.93;;;3.30;1.00;;;;;;5038679;28;20439;-60
2021/12/12 09:52:30;;;;;;;16.13;10.37;;;3.70;1.00;;;;;;5054339;28;20430;-61
2021/12/12 09:55:09;;;;;;;19.77;10.30;;;3.80;1.00;;;;;;5041901;28;20548;-59
2021/12/12 09:57:53;;;;;;;17.07;10.50;;;4.00;1.00;;;;;;5049027;28;20780;-61
2021/12/12 10:00:31;;;;;;;20.63;11.90;;;4.20;1.00;;;;;;5052876;28;20437;-59
2021/12/12 10:03:03;;;;;;;17.00;11.90;;;4.40;1.00;;;;;;5054583;28;20447;-58
2021/12/12 10:06:00;;;;;;;12.47;10.13;;;4.40;1.00;;;;;;5051793;28;20452;-60
2021/12/12 10:09:08;;;;;;;18.53;12.90;;;4.50;1.00;;;;;;5055152;28;20478;-59
2021/12/12 10:12:02;;;;;;;13.27;10.90;;;4.60;1.00;;;;;;5051344;28;20510;-60
2021/12/12 10:14:49;;;;;;;19.97;10.80;;;4.70;1.00;;;;;;5054735;28;20460;-58
2021/12/12 10:17:34;;;;;;;17.57;11.30;;;4.70;1.00;;;;;;5052405;28;20530;-58
2021/12/12 10:20:07;;;;;;;13.57;9.97;;;4.80;1.00;;;;;;5051450;28;20800;-59
2021/12/12 10:22:57;;;;;;;16.70;10.93;;;4.80;1.00;;;;;;5050291;28;20435;-59
2021/12/12 10:25:38;;;;;;;14.90;10.53;;;4.80;1.00;;;;;;5049850;28;20984;-60
2021/12/12 10:28:17;;;;;;;14.77;12.30;;;4.90;1.00;;;;;;5062219;28;20803;-60
2021/12/12 10:30:59;;;;;;;14.43;10.57;;;4.90;1.00;;;;;;5060780;28;20965;-61
2021/12/12 10:33:43;;;;;;;15.47;11.13;;;4.80;1.00;;;;;;5052523;28;20885;-60
2021/12/12 10:36:16;;;;;;;15.90;11.33;;;4.80;1.00;;;;;;5055992;28;20454;-59
2021/12/12 10:38:53;;;;;;;18.83;11.50;;;4.70;1.00;;;;;;5049802;28;20450;-62
2021/12/12 10:41:28;;;;;;;16.17;11.10;;;4.70;1.00;;;;;;5054018;28;20985;-62
2021/12/12 10:44:15;;;;;;;15.57;10.80;;;4.70;1.00;;;;;;5042977;28;20552;-60
2021/12/12 10:47:09;;;;;;;13.20;11.20;;;4.70;1.00;;;;;;5048989;28;20534;-59
2021/12/12 10:49:52;;;;;;;16.40;11.37;;;4.70;1.00;;;;;;5049517;28;20458;-60
2021/12/12 10:52:33;;;;;;;15.87;11.23;;;4.80;1.00;;;;;;5062193;28;20497;-62
2021/12/12 10:55:17;;;;;;;15.30;11.33;;;4.90;1.00;;;;;;5049579;28;20490;-59
2021/12/12 10:57:48;;;;;;;11.90;10.07;;;5.00;1.00;;;;;;5049939;28;20521;-58
2021/12/12 11:00:23;;;;;;;18.60;10.67;;;5.00;1.00;;;;;;5055946;28;20442;-58
2021/12/12 11:03:03;;;;;;;15.70;11.67;;;5.30;1.00;;;;;;5049133;28;20492;-59
2021/12/12 11:06:03;;;;;;;18.03;11.00;;;5.40;1.00;;;;;;5049206;28;20765;-60
2021/12/12 11:08:46;;;;;;;15.50;10.63;;;5.60;1.00;;;;;;5050809;28;21063;-57
2021/12/12 11:11:16;;;;;;;15.03;12.10;;;5.60;1.00;;;;;;5058146;28;20409;-59
2021/12/12 11:14:06;;;;;;;13.40;10.30;;;5.70;1.00;;;;;;5070704;28;20442;-59
2021/12/12 11:16:53;;;;;;;14.90;11.67;;;5.80;1.00;;;;;;5050378;28;20447;-60
2021/12/12 11:19:38;;;;;;;17.70;11.50;;;5.90;1.00;;;;;;5049711;28;20987;-62
2021/12/12 11:22:23;;;;;;;14.37;11.20;;;5.90;1.00;;;;;;5049046;28;20944;-63
2021/12/12 11:24:58;;;;;;;15.87;11.50;;;6.00;1.00;;;;;;5046747;28;20958;-63
2021/12/12 11:27:30;;;;;;;18.53;12.70;;;6.00;1.00;;;;;;5049460;28;20435;-62
2021/12/12 11:30:06;;;;;;;16.40;12.00;;;5.90;1.00;;;;;;5050373;28;20485;-61
2021/12/12 11:32:35;;;;;;;18.20;12.17;;;6.00;1.00;;;;;;5050758;28;20447;-62
2021/12/12 11:35:09;;;;;;;16.67;11.87;;;6.00;1.00;;;;;;5047661;28;20425;-60
2021/12/12 11:37:54;;;;;;;13.87;11.40;;;6.00;1.00;;;;;;5049435;28;20442;-63
2021/12/12 11:40:26;;;;;;;16.60;11.30;;;6.10;1.00;;;;;;5047732;28;20534;-61
2021/12/12 11:42:59;;;;;;;17.80;12.10;;;6.10;1.00;;;;;;5050082;28;20446;-62
2021/12/12 11:45:39;;;;;;;17.13;12.47;;;6.20;1.00;;;;;;5049953;28;20447;-61
2021/12/12 11:48:23;;;;;;;21.30;12.90;;;6.20;1.00;;;;;;5049483;28;20443;-62
2021/12/12 11:51:12;;;;;;;12.57;9.57;;;6.20;1.00;;;;;;5048577;28;20440;-61
2021/12/12 11:54:00;;;;;;;14.83;11.43;;;6.20;1.00;;;;;;5052992;28;20446;-63
2021/12/12 11:56:45;;;;;;;16.30;12.53;;;6.20;1.00;;;;;;5049593;28;20555;-64
2021/12/12 11:59:22;;;;;;;16.90;12.40;;;6.10;1.00;;;;;;5049170;28;20445;-62
2021/12/12 12:01:47;;;;;;;16.73;12.10;;;6.10;1.00;;;;;;5048243;28;20445;-62
2021/12/12 12:04:49;;;;;;;14.90;11.80;;;6.10;1.00;;;;;;5047499;28;20450;-62
2021/12/12 12:07:32;;;;;;;17.83;13.37;;;6.00;1.00;;;;;;5046516;28;20186;-62
2021/12/12 12:10:16;;;;;;;15.90;11.87;;;6.10;1.00;;;;;;5050805;28;20484;-61
2021/12/12 12:13:03;;;;;;;18.20;12.50;;;6.20;1.00;;;;;;5049629;28;20435;-62
2021/12/12 12:15:54;;;;;;;19.37;12.50;;;6.20;1.00;;;;;;5049802;28;20423;-62
2021/12/12 12:18:40;;;;;;;19.70;13.27;;;6.20;1.00;;;;;;5050723;28;20960;-64
2021/12/12 12:21:23;;;;;;;16.87;11.83;;;6.30;1.00;;;;;;5048495;28;20435;-63
2021/12/12 12:26:51;;;;;;;14.27;12.27;;;6.70;1.00;;;;;;5049770;28;20517;-63
2021/12/12 12:29:30;;;;;;;17.60;12.93;;;7.00;1.00;;;;;;5051746;28;20474;-62
2021/12/12 12:32:23;;;;;;;17.10;12.60;;;7.00;1.00;;;;;;5053648;28;20438;-61
2021/12/12 12:35:19;;;;;;;17.80;12.17;;;7.30;1.00;;;;;;5048661;28;20988;-62
2021/12/12 12:38:06;;;;;;;20.93;13.57;;;7.30;1.00;;;;;;5047955;28;20442;-62
2021/12/12 12:41:09;;;;;;;14.80;12.50;;;7.40;1.00;;;;;;5057729;28;20417;-62
2021/12/12 12:44:13;;;;;;;17.87;12.43;;;7.40;1.00;;;;;;5056714;28;20856;-62
2021/12/12 12:47:15;;;;;;;15.57;12.33;;;7.40;1.00;;;;;;5051633;28;20404;-62
2021/12/12 12:50:28;;;;;;;14.77;12.93;;;7.40;1.00;;;;;;5051525;28;20918;-61
2021/12/12 12:53:30;;;;;;;17.33;12.20;;;7.30;1.00;;;;;;5052768;28;20440;-62
2021/12/12 12:56:26;;;;;;;16.27;11.70;;;7.30;1.00;;;;;;5048787;28;20484;-61
2021/12/12 12:59:29;;;;;;;16.93;11.60;;;7.10;1.00;;;;;;5053716;28;20445;-62
2021/12/12 13:02:05;;;;;;;14.23;10.77;;;6.90;1.00;;;;;;5051248;28;20448;-60
2021/12/12 13:04:47;;;;;;;15.90;13.30;;;7.00;1.00;;;;;;5046429;28;20504;-61
2021/12/12 13:07:24;;;;;;;17.30;12.60;;;6.90;1.00;;;;;;5045510;28;20451;-60
2021/12/12 13:10:13;;;;;;;16.27;12.30;;;6.80;1.00;;;;;;5032808;28;20466;-62
2021/12/12 13:12:46;;;;;;;18.13;11.90;;;6.70;1.00;;;;;;5050690;28;20438;-61
2021/12/12 13:15:39;;;;;;;16.47;12.40;;;6.70;1.00;;;;;;5058523;28;20473;-61
2021/12/12 13:18:26;;;;;;;16.87;11.47;;;6.60;1.00;;;;;;5051904;28;21030;-61
2021/12/12 13:21:29;;;;;;;15.77;12.37;;;6.60;1.00;;;;;;5051632;28;20443;-60
2021/12/12 13:24:06;;;;;;;20.23;11.77;;;6.80;1.00;;;;;;5054466;28;20427;-61
2021/12/12 13:26:53;;;;;;;14.90;11.60;;;6.80;1.00;;;;;;5050956;28;20498;-61
2021/12/12 13:29:48;;;;;;;17.70;12.70;;;6.80;1.00;;;;;;5049073;28;20446;-60
2021/12/12 13:32:27;;;;;;;16.17;12.70;;;6.70;1.00;;;;;;5049471;28;20434;-61
2021/12/12 13:35:00;;;;;;;16.80;12.70;;;6.80;1.00;;;;;;5051178;28;20443;-60
2021/12/12 13:37:34;;;;;;;15.93;12.10;;;6.80;1.00;;;;;;5052475;28;20899;-60
2021/12/12 13:40:24;;;;;;;16.63;13.43;;;6.70;1.00;;;;;;5049614;28;20420;-60
2021/12/12 13:43:08;;;;;;;17.40;12.80;;;6.60;1.00;;;;;;5050797;28;20511;-58
2021/12/12 13:45:51;;;;;;;13.83;11.37;;;6.60;1.00;;;;;;5050945;28;20451;-60
2021/12/12 13:48:29;;;;;;;20.40;12.80;;;6.60;1.00;;;;;;5050126;28;20549;-60